Aviation Digital Data Service (ADDS)

Output produced by METARs form (1147 UTC 04 July 2015)
found at http://www.aviationweather.gov/adds/metars/
 
KSAV 041053Z 25004KT 10SM FEW040 SCT140 BKN250 24/22 A3008 RMK AO2 SLP184 T02390217